Terminal Aerodrome Forecast
Issued by NWS Shreveport, LA

Home | Current Version | Previous Version | Text Only | Print | Product List | Glossary On
Versions: 1 2 3 4 5 6 7 8 9 10 11 12 13 14 15 16 17 18
000
FTUS44 KSHV 190829 CCA
TAFMLU
TAF COR
KMLU 190829Z 1908/2006 00000KT P6SM OVC009
      TEMPO 1909/1911 VRB15G45KT 2SM TSRA BR BKN010CB
     FM191100 VRB03KT 5SM BR OVC004
      TEMPO 1911/1914 1SM BR
     FM191400 23008KT P6SM SCT015
     FM191600 22010KT P6SM SCT030
     FM191800 22012G18KT P6SM SCT035
     FM200300 20010KT P6SM VCTS SCT040CB=

USA.gov is the U.S. government's official web portal to all federal, state and local government web resources and services.